createdAt,value
2017-08-15T00:00:20.304Z,1003.14
2017-08-15T00:01:30.651Z,1003.11
2017-08-15T00:02:41.006Z,1003.1
2017-08-15T00:03:51.353Z,1003.07
2017-08-15T00:05:01.740Z,1003.03
2017-08-15T00:06:12.076Z,1003.02
2017-08-15T00:07:22.117Z,1003.06
2017-08-15T00:08:32.474Z,1003.04
2017-08-15T00:09:42.822Z,1003.06
2017-08-15T00:10:52.908Z,1003.05
2017-08-15T00:12:02.632Z,1003.1
2017-08-15T00:13:12.983Z,1003.11
2017-08-15T00:14:23.319Z,1003.11
2017-08-15T00:15:33.659Z,1003.13
2017-08-15T00:16:44.048Z,1003.11
2017-08-15T00:17:53.766Z,1003.08
2017-08-15T00:19:04.113Z,1003.08
2017-08-15T00:20:14.151Z,1003.06
2017-08-15T00:21:24.505Z,1003.03
2017-08-15T00:22:33.978Z,1003.06
2017-08-15T00:23:44.315Z,1003.05
2017-08-15T00:24:54.654Z,1003.05
2017-08-15T00:26:05.012Z,1003.09
2017-08-15T00:27:15.052Z,1003.06
2017-08-15T00:28:25.434Z,1003.06
2017-08-15T00:29:35.492Z,1003.07
2017-08-15T00:30:45.854Z,1003.08
2017-08-15T00:31:56.202Z,1003.1
2017-08-15T00:33:07.449Z,1003.1
2017-08-15T00:34:17.536Z,1003.09
2017-08-15T00:35:27.882Z,1003.1
2017-08-15T00:36:38.236Z,1003.11
2017-08-15T00:37:48.250Z,1003.09
2017-08-15T00:38:58.291Z,1003.11
2017-08-15T00:40:08.687Z,1003.11
2017-08-15T00:41:19.050Z,1003.11
2017-08-15T00:42:29.404Z,1003.12
2017-08-15T00:43:39.744Z,1003.18
2017-08-15T00:44:50.076Z,1003.16
2017-08-15T00:46:00.491Z,1003.14
2017-08-15T00:47:10.529Z,1003.15
2017-08-15T00:48:20.248Z,1003.17
2017-08-15T00:49:30.598Z,1003.16
2017-08-15T00:50:40.634Z,1003.17
2017-08-15T00:51:53.084Z,1003.17
2017-08-15T00:53:03.439Z,1003.17
2017-08-15T00:54:13.813Z,1003.2
2017-08-15T00:55:26.313Z,1003.18
2017-08-15T00:56:36.658Z,1003.19
2017-08-15T00:57:46.747Z,1003.21
2017-08-15T00:58:57.131Z,1003.19
2017-08-15T01:00:07.486Z,1003.18
2017-08-15T01:01:17.515Z,1003.17
2017-08-15T01:02:27.236Z,1003.13
2017-08-15T01:03:37.642Z,1003.08
2017-08-15T01:04:47.981Z,1003.09
2017-08-15T01:05:58.333Z,1003.11
2017-08-15T01:07:08.373Z,1003.1
2017-08-15T01:08:18.726Z,1003.1
2017-08-15T01:09:29.114Z,1003.08
2017-08-15T01:10:39.465Z,1003.1
2017-08-15T01:11:49.815Z,1003.06
2017-08-15T01:13:00.151Z,1003.06
2017-08-15T01:14:10.505Z,1003.11
2017-08-15T01:15:20.580Z,1003.06
2017-08-15T01:16:30.288Z,1003.09
2017-08-15T01:17:40.646Z,1003.09
2017-08-15T01:18:50.992Z,1003.08
2017-08-15T01:20:01.028Z,1003.07
2017-08-15T01:21:11.866Z,1003.07
2017-08-15T01:22:21.586Z,1003.08
2017-08-15T01:23:31.926Z,1003.05
2017-08-15T01:24:41.978Z,1003.02
2017-08-15T01:25:56.813Z,1003.05
2017-08-15T01:27:09.491Z,1003.05
2017-08-15T01:28:19.836Z,1003.01
2017-08-15T01:29:30.176Z,1003.03
2017-08-15T01:30:40.519Z,1002.99
2017-08-15T01:31:50.542Z,1003.02
2017-08-15T01:33:00.959Z,1002.98
2017-08-15T01:34:11.009Z,1002.93
2017-08-15T01:35:21.358Z,1002.96
2017-08-15T01:36:31.703Z,1002.97
2017-08-15T01:37:42.026Z,1002.97
2017-08-15T01:38:52.428Z,1002.98
2017-08-15T01:40:02.782Z,1002.95
2017-08-15T01:41:13.121Z,1002.92
2017-08-15T01:42:23.154Z,1002.96
2017-08-15T01:43:33.509Z,1002.96
2017-08-15T01:44:43.591Z,1002.98
2017-08-15T01:45:53.949Z,1002.95
2017-08-15T01:47:04.304Z,1002.98
2017-08-15T01:48:14.635Z,1002.95
2017-08-15T01:49:24.666Z,1002.95
2017-08-15T01:50:35.068Z,1002.96
2017-08-15T01:51:45.414Z,1002.89
2017-08-15T01:52:55.763Z,1002.91
2017-08-15T01:54:05.789Z,1002.87
2017-08-15T01:55:17.042Z,1002.88
2017-08-15T01:56:27.795Z,1002.88
2017-08-15T01:57:38.146Z,1002.85
2017-08-15T01:58:48.196Z,1002.86
2017-08-15T01:59:59.991Z,1002.84
2017-08-15T02:01:10.338Z,1002.82
2017-08-15T02:02:20.419Z,1002.84
2017-08-15T02:03:30.464Z,1002.85
2017-08-15T02:04:40.511Z,1002.82
2017-08-15T02:05:50.854Z,1002.8
2017-08-15T02:07:01.199Z,1002.81
2017-08-15T02:08:11.611Z,1002.81
2017-08-15T02:09:21.651Z,1002.8
2017-08-15T02:10:31.995Z,1002.82
2017-08-15T02:11:42.330Z,1002.82
2017-08-15T02:12:52.681Z,1002.84
2017-08-15T02:14:03.072Z,1002.82
2017-08-15T02:15:13.472Z,1002.77
2017-08-15T02:16:25.568Z,1002.82
2017-08-15T02:17:35.927Z,1002.82
2017-08-15T02:18:46.292Z,1002.8
2017-08-15T02:19:56.370Z,1002.83
2017-08-15T02:21:06.735Z,1002.85
2017-08-15T02:22:16.131Z,1002.84
2017-08-15T02:23:26.470Z,1002.87
2017-08-15T02:24:36.513Z,1002.87
2017-08-15T02:25:46.619Z,1002.84
2017-08-15T02:26:56.958Z,1002.88
2017-08-15T02:28:07.315Z,1002.87
2017-08-15T02:29:17.660Z,1002.87
2017-08-15T02:30:27.693Z,1002.85
2017-08-15T02:31:38.085Z,1002.86
2017-08-15T02:32:48.120Z,1002.84
2017-08-15T02:33:58.467Z,1002.85
2017-08-15T02:35:08.837Z,1002.81
2017-08-15T02:36:19.206Z,1002.8
2017-08-15T02:37:29.592Z,1002.8
2017-08-15T02:38:41.288Z,1002.81
2017-08-15T02:39:51.639Z,1002.75
2017-08-15T02:41:01.983Z,1002.76
2017-08-15T02:42:12.037Z,1002.73
2017-08-15T02:43:22.444Z,1002.76
2017-08-15T02:44:32.808Z,1002.71
2017-08-15T02:45:42.828Z,1002.76
2017-08-15T02:46:52.854Z,1002.77
2017-08-15T02:48:02.611Z,1002.72
2017-08-15T02:49:13.042Z,1002.75
2017-08-15T02:50:23.401Z,1002.74
2017-08-15T02:51:33.752Z,1002.75
2017-08-15T02:52:44.094Z,1002.73
2017-08-15T02:53:54.133Z,1002.73
2017-08-15T02:55:04.531Z,1002.71
2017-08-15T02:56:14.879Z,1002.69
2017-08-15T02:57:25.223Z,1002.71
2017-08-15T02:58:35.273Z,1002.67
2017-08-15T02:59:45.619Z,1002.66
2017-08-15T03:00:55.701Z,1002.65
2017-08-15T03:33:03.046Z,1002.7
2017-08-15T03:34:13.373Z,1002.72
2017-08-15T03:35:23.388Z,1002.69
2017-08-15T03:36:33.725Z,1002.73
2017-08-15T03:37:43.744Z,1002.74
2017-08-15T03:38:54.132Z,1002.74
2017-08-15T03:40:04.471Z,1002.75
2017-08-15T03:41:14.809Z,1002.79
2017-08-15T03:42:25.162Z,1002.78
2017-08-15T03:43:35.520Z,1002.79
2017-08-15T03:44:45.606Z,1002.81
2017-08-15T03:45:55.617Z,1002.78
2017-08-15T03:47:05.976Z,1002.82
2017-08-15T03:48:16.017Z,1002.77
2017-08-15T03:49:26.353Z,1002.81
2017-08-15T03:50:36.754Z,1002.86
2017-08-15T03:51:46.475Z,1002.86
2017-08-15T03:52:56.825Z,1002.87
2017-08-15T03:54:07.162Z,1002.88
2017-08-15T03:55:17.215Z,1002.9
2017-08-15T03:56:27.005Z,1002.94
2017-08-15T03:57:37.037Z,1002.92
2017-08-15T03:58:47.399Z,1002.95
2017-08-15T03:59:57.746Z,1002.96
2017-08-15T04:01:11.508Z,1002.93
2017-08-15T04:02:21.605Z,1002.93
2017-08-15T04:03:31.957Z,1002.96
2017-08-15T04:04:42.004Z,1002.93
2017-08-15T04:05:52.367Z,1002.96
2017-08-15T04:07:02.111Z,1002.97
2017-08-15T04:08:12.519Z,1003
2017-08-15T04:09:23.845Z,1003.03
2017-08-15T04:10:33.882Z,1003.01
2017-08-15T04:11:43.915Z,1003.02
2017-08-15T04:12:54.261Z,1003.05
2017-08-15T04:14:04.658Z,1003.03
2017-08-15T04:15:14.999Z,1003.01
2017-08-15T04:16:25.341Z,1003
2017-08-15T04:17:35.687Z,1002.98
2017-08-15T04:18:45.733Z,1002.99
2017-08-15T04:19:55.819Z,1003.02
2017-08-15T04:21:08.766Z,1003.04
2017-08-15T04:22:22.013Z,1003.03
2017-08-15T04:23:32.063Z,1003.04
2017-08-15T04:24:42.406Z,1003.04
2017-08-15T04:25:52.494Z,1003.08
2017-08-15T04:27:02.848Z,1003
2017-08-15T04:28:12.571Z,1003.05
2017-08-15T04:29:22.281Z,1003.05
2017-08-15T04:30:32.639Z,1003.1
2017-08-15T04:31:42.738Z,1003.12
2017-08-15T04:32:53.081Z,1003.08
2017-08-15T04:34:03.110Z,1003.11
2017-08-15T04:35:13.461Z,1003.14
2017-08-15T04:36:23.809Z,1003.17
2017-08-15T04:37:34.203Z,1003.09
2017-08-15T04:38:44.536Z,1003.1
2017-08-15T04:39:54.903Z,1003.15
2017-08-15T04:41:05.247Z,1003.23
2017-08-15T04:42:15.589Z,1003.18
2017-08-15T04:43:26.005Z,1003.06
2017-08-15T04:44:36.044Z,1003.06
2017-08-15T04:45:46.083Z,1003.11
2017-08-15T04:46:56.422Z,1003.04
2017-08-15T04:48:06.766Z,1003.06
2017-08-15T04:49:17.189Z,1003.01
2017-08-15T04:50:27.527Z,1003.09
2017-08-15T04:51:37.560Z,1003.24
2017-08-15T04:52:52.829Z,1003.15
2017-08-15T04:54:02.885Z,1003.27
2017-08-15T04:55:13.276Z,1003.6
2017-08-15T04:56:23.606Z,1003.56
2017-08-15T04:57:33.962Z,1003.57
2017-08-15T04:58:44.295Z,1003.54
2017-08-15T04:59:54.637Z,1003.45
2017-08-15T05:01:05.053Z,1003.48
2017-08-15T05:02:14.785Z,1003.49
2017-08-15T05:03:25.125Z,1003.49
2017-08-15T05:04:35.166Z,1003.53
2017-08-15T05:05:45.526Z,1003.5
2017-08-15T05:06:55.292Z,1003.5
2017-08-15T05:08:05.667Z,1003.43
2017-08-15T05:09:15.711Z,1003.49
2017-08-15T05:10:26.060Z,1003.49
2017-08-15T05:11:36.107Z,1003.48
2017-08-15T05:12:46.194Z,1003.5
2017-08-15T05:13:56.229Z,1003.49
2017-08-15T05:15:06.589Z,1003.53
2017-08-15T05:16:16.940Z,1003.51
2017-08-15T05:17:27.287Z,1003.52
2017-08-15T05:18:37.690Z,1003.55
2017-08-15T05:19:48.034Z,1003.56
2017-08-15T05:20:58.402Z,1003.55
2017-08-15T05:22:08.743Z,1003.62
2017-08-15T05:23:19.091Z,1003.81
2017-08-15T05:24:29.497Z,1004.28
2017-08-15T05:25:39.850Z,1004.51
2017-08-15T05:26:50.185Z,1004.27
2017-08-15T05:28:00.543Z,1004.13
2017-08-15T05:29:10.893Z,1004.11
2017-08-15T05:30:21.296Z,1004.12
2017-08-15T05:31:31.637Z,1004.01
2017-08-15T05:32:41.994Z,1003.98
2017-08-15T05:33:52.039Z,1004
2017-08-15T05:35:02.396Z,1004.12
2017-08-15T05:36:12.829Z,1004.04
2017-08-15T05:37:23.171Z,1004.02
2017-08-15T05:38:33.504Z,1004.01
2017-08-15T05:39:43.861Z,1004
2017-08-15T05:40:53.893Z,1003.97
2017-08-15T05:42:03.988Z,1003.95
2017-08-15T05:43:14.037Z,1003.9
2017-08-15T05:44:24.074Z,1003.99
2017-08-15T05:45:33.488Z,1004.02
2017-08-15T05:46:43.522Z,1003.96
2017-08-15T05:47:53.293Z,1003.9
2017-08-15T05:49:02.716Z,1003.9
2017-08-15T05:50:13.067Z,1003.99
2017-08-15T05:51:23.424Z,1004.04
2017-08-15T05:52:33.772Z,1003.95
2017-08-15T05:53:44.176Z,1003.92
2017-08-15T05:54:54.521Z,1003.87
2017-08-15T05:56:04.584Z,1003.6
2017-08-15T05:57:14.961Z,1003.44
2017-08-15T05:58:25.323Z,1003.48
2017-08-15T05:59:35.411Z,1003.49
2017-08-15T06:00:45.453Z,1003.48
2017-08-15T06:01:55.811Z,1003.51
2017-08-15T06:03:06.151Z,1003.47
2017-08-15T06:04:16.512Z,1003.45
2017-08-15T06:05:26.908Z,1003.45
2017-08-15T06:06:40.423Z,1003.46
2017-08-15T06:07:50.130Z,1003.44
2017-08-15T06:09:00.501Z,1003.49
2017-08-15T06:10:10.561Z,1003.46
2017-08-15T06:11:20.969Z,1003.46
2017-08-15T06:12:30.390Z,1003.5
2017-08-15T06:13:40.742Z,1003.52
2017-08-15T06:14:51.097Z,1003.49
2017-08-15T06:16:01.447Z,1003.47
2017-08-15T06:17:11.208Z,1003.45
2017-08-15T06:18:21.242Z,1003.47
2017-08-15T06:19:31.597Z,1003.48
2017-08-15T06:20:41.971Z,1003.47
2017-08-15T06:21:52.020Z,1003.47
2017-08-15T06:23:02.421Z,1003.46
2017-08-15T06:24:12.780Z,1003.49
2017-08-15T06:25:22.825Z,1003.47
2017-08-15T06:26:33.190Z,1003.48
2017-08-15T06:27:43.233Z,1003.43
2017-08-15T06:28:53.633Z,1003.45
2017-08-15T06:30:03.998Z,1003.48
2017-08-15T06:31:14.036Z,1003.42
2017-08-15T06:32:24.386Z,1003.46
2017-08-15T06:33:34.426Z,1003.44
2017-08-15T06:34:44.826Z,1003.43
2017-08-15T06:35:55.187Z,1003.43
2017-08-15T06:37:05.549Z,1003.41
2017-08-15T06:38:15.913Z,1003.43
2017-08-15T06:39:26.259Z,1003.42
2017-08-15T06:40:36.664Z,1003.36
2017-08-15T06:41:46.706Z,1003.41
2017-08-15T06:42:56.738Z,1003.39
2017-08-15T06:44:06.802Z,1003.36
2017-08-15T06:45:17.158Z,1003.38
2017-08-15T06:46:27.575Z,1003.38
2017-08-15T06:47:37.601Z,1003.39
2017-08-15T06:48:47.630Z,1003.4
2017-08-15T06:49:57.988Z,1003.4
2017-08-15T06:51:08.372Z,1003.36
2017-08-15T06:52:18.457Z,1003.36
2017-08-15T06:53:28.808Z,1003.38
2017-08-15T06:54:39.156Z,1003.39
2017-08-15T06:55:49.185Z,1003.39
2017-08-15T06:56:59.556Z,1003.37
2017-08-15T06:58:09.339Z,1003.41
2017-08-15T06:59:19.060Z,1003.41
2017-08-15T07:00:29.438Z,1003.46
2017-08-15T07:01:39.788Z,1003.48
2017-08-15T07:02:50.150Z,1003.46
2017-08-15T07:04:00.549Z,1003.49
2017-08-15T07:05:10.580Z,1003.48
2017-08-15T07:06:20.929Z,1003.47
2017-08-15T07:07:31.294Z,1003.48
2017-08-15T07:08:41.340Z,1003.47
2017-08-15T07:09:51.437Z,1003.48
2017-08-15T07:11:01.794Z,1003.48
2017-08-15T07:12:11.531Z,1003.47
2017-08-15T07:13:21.870Z,1003.48
2017-08-15T07:14:32.219Z,1003.45
2017-08-15T07:15:46.736Z,1003.51
2017-08-15T07:16:56.787Z,1003.45
2017-08-15T07:18:06.215Z,1003.44
2017-08-15T07:19:16.280Z,1003.46
2017-08-15T07:20:26.328Z,1003.47
2017-08-15T07:21:36.735Z,1003.44
2017-08-15T07:22:46.487Z,1003.44
2017-08-15T07:24:03.545Z,1003.46
2017-08-15T07:25:13.600Z,1003.5
2017-08-15T07:26:23.352Z,1003.44
2017-08-15T07:27:32.819Z,1003.49
2017-08-15T07:28:43.210Z,1003.5
2017-08-15T07:29:52.938Z,1003.5
2017-08-15T07:31:02.680Z,1003.53
2017-08-15T07:32:15.421Z,1003.52
2017-08-15T07:33:25.824Z,1003.54
2017-08-15T07:34:38.516Z,1003.54
2017-08-15T07:35:48.877Z,1003.57
2017-08-15T07:36:58.903Z,1003.5
2017-08-15T07:38:08.632Z,1003.46
2017-08-15T07:39:18.727Z,1003.49
2017-08-15T07:40:29.078Z,1003.51
2017-08-15T07:41:38.821Z,1003.53
2017-08-15T07:42:48.856Z,1003.46
2017-08-15T07:43:59.215Z,1003.53
2017-08-15T07:45:09.626Z,1003.49
2017-08-15T07:46:19.988Z,1003.53
2017-08-15T07:47:30.029Z,1003.5
2017-08-15T07:48:40.384Z,1003.52
2017-08-15T07:49:50.733Z,1003.49
2017-08-15T07:51:01.141Z,1003.49
2017-08-15T07:52:11.507Z,1003.47
2017-08-15T07:53:23.824Z,1003.44
2017-08-15T07:54:34.199Z,1003.45
2017-08-15T07:55:44.557Z,1003.43
2017-08-15T07:56:54.659Z,1003.45
2017-08-15T07:58:04.999Z,1003.42
2017-08-15T07:59:15.366Z,1003.41
2017-08-15T08:00:25.733Z,1003.42
2017-08-15T08:01:36.102Z,1003.38
2017-08-15T08:02:46.513Z,1003.44
2017-08-15T08:03:56.859Z,1003.41
2017-08-15T08:05:07.241Z,1003.4
2017-08-15T08:06:17.288Z,1003.38
2017-08-15T08:07:27.341Z,1003.41
2017-08-15T08:08:37.741Z,1003.39
2017-08-15T08:09:47.477Z,1003.39
2017-08-15T08:10:57.825Z,1003.36
2017-08-15T08:12:10.829Z,1003.35
2017-08-15T08:13:21.191Z,1003.37
2017-08-15T08:14:31.631Z,1003.33
2017-08-15T08:15:41.691Z,1003.33
2017-08-15T08:16:56.084Z,1003.31
2017-08-15T08:18:06.473Z,1003.29
2017-08-15T08:19:16.832Z,1003.28
2017-08-15T08:20:27.249Z,1003.28
2017-08-15T08:21:37.292Z,1003.28
2017-08-15T08:22:50.507Z,1003.28
2017-08-15T08:24:00.874Z,1003.29
2017-08-15T08:25:11.258Z,1003.28
2017-08-15T08:26:22.774Z,1003.25
2017-08-15T08:27:33.192Z,1003.29
2017-08-15T08:28:43.626Z,1003.27
2017-08-15T08:29:54.018Z,1003.32
2017-08-15T08:31:04.433Z,1003.32
2017-08-15T08:32:14.828Z,1003.27
2017-08-15T08:33:25.216Z,1003.28
2017-08-15T08:34:35.600Z,1003.3
2017-08-15T08:35:45.642Z,1003.29
2017-08-15T08:36:55.820Z,1003.29
2017-08-15T08:38:06.277Z,1003.26
2017-08-15T08:39:16.642Z,1003.27
2017-08-15T08:40:26.993Z,1003.29
2017-08-15T08:41:37.369Z,1003.27
2017-08-15T08:42:47.741Z,1003.18
2017-08-15T08:43:58.178Z,1003.21
2017-08-15T08:45:08.528Z,1003.17
2017-08-15T08:46:18.636Z,1003.16
2017-08-15T08:47:28.999Z,1003.16
2017-08-15T08:48:43.961Z,1003.18
2017-08-15T08:49:54.381Z,1003.1
2017-08-15T08:51:04.862Z,1003.14
2017-08-15T08:52:15.287Z,1003.13
2017-08-15T08:53:25.700Z,1003.13
2017-08-15T08:54:36.072Z,1003.11
2017-08-15T08:55:46.487Z,1003.09
2017-08-15T08:56:56.566Z,1003.1
2017-08-15T08:58:06.617Z,1003.11
2017-08-15T08:59:16.727Z,1003.12
2017-08-15T09:00:27.122Z,1003.1
2017-08-15T09:01:37.569Z,1003.08
2017-08-15T09:02:47.979Z,1003.14
2017-08-15T09:03:58.354Z,1003.11
2017-08-15T09:05:08.179Z,1003.09
2017-08-15T09:06:19.152Z,1003.15
2017-08-15T09:07:29.562Z,1003.13
2017-08-15T09:08:39.670Z,1003.1
2017-08-15T09:09:50.030Z,1003.05
2017-08-15T09:11:00.428Z,1003.06
2017-08-15T09:12:10.794Z,1003.12
2017-08-15T09:13:21.243Z,1003.1
2017-08-15T09:14:31.650Z,1003.08
2017-08-15T09:15:41.709Z,1003.08
2017-08-15T09:16:51.789Z,1003.1
2017-08-15T09:18:01.839Z,1003.1
2017-08-15T09:19:12.298Z,1003.07
2017-08-15T09:20:25.912Z,1003.1
2017-08-15T09:21:36.289Z,1003.09
2017-08-15T09:22:46.683Z,1003.14
2017-08-15T09:23:56.755Z,1003.1
2017-08-15T09:25:07.168Z,1003
2017-08-15T09:26:19.062Z,1002.97
2017-08-15T09:27:29.118Z,1002.96
2017-08-15T09:28:39.532Z,1002.93
2017-08-15T09:29:49.905Z,1002.88
2017-08-15T09:31:00.310Z,1002.89
2017-08-15T09:32:10.716Z,1002.86
2017-08-15T09:33:21.815Z,1002.83
2017-08-15T09:34:31.887Z,1002.81
2017-08-15T09:35:42.276Z,1002.79
2017-08-15T09:36:54.260Z,1002.75
2017-08-15T09:38:04.651Z,1002.76
2017-08-15T09:39:14.718Z,1002.72
2017-08-15T09:40:25.079Z,1002.69
2017-08-15T09:41:34.903Z,1002.75
2017-08-15T09:42:45.356Z,1002.66
2017-08-15T09:43:55.507Z,1002.65
2017-08-15T09:45:05.872Z,1002.71
2017-08-15T09:46:16.302Z,1002.66
2017-08-15T09:47:26.344Z,1002.71
2017-08-15T09:48:36.829Z,1002.76
2017-08-15T09:49:47.309Z,1002.75
2017-08-15T09:50:57.467Z,1002.75
2017-08-15T09:52:06.892Z,1002.75
2017-08-15T09:53:16.637Z,1002.62
2017-08-15T09:54:27.111Z,1002.65
2017-08-15T09:55:37.223Z,1002.72
2017-08-15T09:56:47.650Z,1002.66
2017-08-15T09:57:58.023Z,1002.63
2017-08-15T09:59:08.089Z,1002.69
2017-08-15T10:00:18.496Z,1002.7
2017-08-15T10:01:28.877Z,1002.67
2017-08-15T10:02:39.233Z,1002.67
2017-08-15T10:03:49.605Z,1002.67
2017-08-15T10:04:59.966Z,1002.69
2017-08-15T10:06:10.400Z,1002.68
2017-08-15T10:07:20.760Z,1002.69
2017-08-15T10:08:31.114Z,1002.69
2017-08-15T10:09:41.156Z,1002.72
2017-08-15T10:10:51.538Z,1002.71
2017-08-15T10:12:02.019Z,1002.68
2017-08-15T10:13:12.358Z,1002.62
2017-08-15T10:14:22.513Z,1002.6
2017-08-15T10:15:32.899Z,1002.6
2017-08-15T10:16:43.259Z,1002.58
2017-08-15T10:17:53.362Z,1002.6
2017-08-15T10:19:03.086Z,1002.6
2017-08-15T10:20:13.433Z,1002.66
2017-08-15T10:21:23.876Z,1002.63
2017-08-15T10:22:34.310Z,1002.64
2017-08-15T10:23:44.755Z,1002.68
2017-08-15T10:24:55.147Z,1002.66
2017-08-15T10:26:05.209Z,1002.66
2017-08-15T10:27:17.247Z,1002.74
2017-08-15T10:28:27.607Z,1002.74
2017-08-15T10:29:38.047Z,1002.76
2017-08-15T10:30:51.627Z,1002.73
2017-08-15T10:32:02.036Z,1002.69
2017-08-15T10:33:12.394Z,1002.66
2017-08-15T10:34:22.784Z,1002.64
2017-08-15T10:35:32.916Z,1002.63
2017-08-15T10:36:42.360Z,1002.63
2017-08-15T10:37:52.739Z,1002.57
2017-08-15T10:39:03.111Z,1002.52
2017-08-15T10:40:13.161Z,1002.5
2017-08-15T10:41:23.265Z,1002.5
2017-08-15T10:42:33.710Z,1002.55
2017-08-15T10:43:44.076Z,1002.47
2017-08-15T10:44:54.490Z,1002.48
2017-08-15T10:46:04.853Z,1002.46
2017-08-15T10:47:15.473Z,1002.46
2017-08-15T10:48:25.544Z,1002.52
2017-08-15T10:49:35.635Z,1002.46
2017-08-15T10:50:46.240Z,1002.5
2017-08-15T10:51:56.650Z,1002.42
2017-08-15T10:53:06.773Z,1002.45
2017-08-15T10:54:17.163Z,1002.41
2017-08-15T10:55:27.269Z,1002.37
2017-08-15T10:56:37.340Z,1002.35
2017-08-15T10:57:47.773Z,1002.36
2017-08-15T10:58:57.871Z,1002.32
2017-08-15T11:00:09.116Z,1002.29
2017-08-15T11:01:19.482Z,1002.31
2017-08-15T11:02:29.221Z,1002.38
2017-08-15T11:03:38.969Z,1002.29
2017-08-15T11:04:49.413Z,1002.31
2017-08-15T11:05:59.441Z,1002.26
2017-08-15T11:07:09.493Z,1002.23
2017-08-15T11:08:19.921Z,1002.23
2017-08-15T11:09:30.357Z,1002.22
2017-08-15T11:10:40.773Z,1002.25
2017-08-15T11:11:50.861Z,1002.25
2017-08-15T11:13:01.233Z,1002.2
2017-08-15T11:14:11.282Z,1002.15
2017-08-15T11:15:21.664Z,1002.12
2017-08-15T11:16:31.809Z,1002.11
2017-08-15T11:17:42.166Z,1002.11
2017-08-15T11:18:52.542Z,1002.11
2017-08-15T11:20:02.895Z,1002.12
2017-08-15T11:21:13.278Z,1002.05
2017-08-15T11:22:23.695Z,1002.01
2017-08-15T11:23:34.061Z,1002.01
2017-08-15T11:24:44.429Z,1002.03
2017-08-15T11:25:54.796Z,1001.97
2017-08-15T11:27:05.167Z,1001.99
2017-08-15T11:28:14.965Z,1001.92
2017-08-15T11:29:25.026Z,1001.89
2017-08-15T11:30:35.408Z,1001.9
2017-08-15T11:31:45.139Z,1001.86
2017-08-15T11:32:55.177Z,1001.89
2017-08-15T11:34:05.265Z,1001.86
2017-08-15T11:35:15.635Z,1001.88
2017-08-15T11:36:28.661Z,1001.91
2017-08-15T11:37:38.707Z,1001.94
2017-08-15T11:38:51.023Z,1001.91
2017-08-15T11:40:01.471Z,1001.88
2017-08-15T11:41:11.517Z,1001.87
2017-08-15T11:42:21.570Z,1001.84
2017-08-15T11:43:35.977Z,1001.91
2017-08-15T11:44:46.340Z,1001.92
2017-08-15T11:45:56.811Z,1001.86
2017-08-15T11:47:06.865Z,1001.85
2017-08-15T11:48:17.247Z,1001.87
2017-08-15T11:49:27.632Z,1001.84
2017-08-15T11:50:37.685Z,1001.83
2017-08-15T11:51:48.118Z,1001.83
2017-08-15T11:52:57.872Z,1001.83
2017-08-15T11:54:08.235Z,1001.8
2017-08-15T11:55:18.289Z,1001.83
2017-08-15T11:56:34.121Z,1001.81
2017-08-15T11:57:44.559Z,1001.81
2017-08-15T11:58:54.632Z,1001.79
2017-08-15T12:00:04.702Z,1001.76
2017-08-15T12:01:15.075Z,1001.79
2017-08-15T12:02:25.434Z,1001.74
2017-08-15T12:03:35.850Z,1001.74
2017-08-15T12:04:46.211Z,1001.74
2017-08-15T12:05:59.041Z,1001.81
2017-08-15T12:07:09.393Z,1001.82
2017-08-15T12:08:19.755Z,1001.78
2017-08-15T12:09:30.147Z,1001.81
2017-08-15T12:10:40.513Z,1001.85
2017-08-15T12:11:50.604Z,1001.84
2017-08-15T12:13:00.969Z,1001.85
2017-08-15T12:14:14.124Z,1001.85
2017-08-15T12:15:24.552Z,1001.8
2017-08-15T12:16:34.292Z,1001.77
2017-08-15T12:17:44.708Z,1001.82
2017-08-15T12:18:55.078Z,1001.79
2017-08-15T12:20:05.137Z,1001.83
2017-08-15T12:21:15.602Z,1001.81
2017-08-15T12:22:25.981Z,1001.77
2017-08-15T12:23:39.699Z,1001.77
2017-08-15T12:24:50.119Z,1001.78
2017-08-15T12:25:59.566Z,1001.78
2017-08-15T12:27:09.978Z,1001.77
2017-08-15T12:28:20.341Z,1001.78
2017-08-15T12:29:30.720Z,1001.76
2017-08-15T12:30:43.597Z,1001.7
2017-08-15T12:31:53.654Z,1001.71
2017-08-15T12:33:04.109Z,1001.71
2017-08-15T12:34:14.485Z,1001.66
2017-08-15T12:35:24.569Z,1001.73
2017-08-15T12:36:34.963Z,1001.69
2017-08-15T12:37:45.408Z,1001.74
2017-08-15T12:38:55.862Z,1001.72
2017-08-15T12:40:06.321Z,1001.72
2017-08-15T12:41:16.728Z,1001.67
2017-08-15T12:42:27.095Z,1001.61
2017-08-15T12:43:37.497Z,1001.67
2017-08-15T12:44:47.892Z,1001.71
2017-08-15T12:45:58.272Z,1001.65
2017-08-15T12:47:08.335Z,1001.66
2017-08-15T12:48:18.717Z,1001.64
2017-08-15T12:49:29.145Z,1001.65
2017-08-15T12:50:39.572Z,1001.63
2017-08-15T12:51:51.002Z,1001.64
2017-08-15T12:53:01.450Z,1001.64
2017-08-15T12:54:11.826Z,1001.67
2017-08-15T12:55:22.198Z,1001.68
2017-08-15T12:56:32.640Z,1001.67
2017-08-15T12:57:43.078Z,1001.62
2017-08-15T12:58:53.121Z,1001.59
2017-08-15T13:00:03.497Z,1001.55
2017-08-15T13:01:13.556Z,1001.59
2017-08-15T13:02:23.669Z,1001.58
2017-08-15T13:03:38.453Z,1001.53
2017-08-15T13:04:48.836Z,1001.58
2017-08-15T13:05:59.264Z,1001.54
2017-08-15T13:07:09.696Z,1001.53
2017-08-15T13:08:19.823Z,1001.48
2017-08-15T13:09:30.247Z,1001.48
2017-08-15T13:10:40.341Z,1001.51
2017-08-15T13:11:50.701Z,1001.43
2017-08-15T13:13:01.123Z,1001.44
2017-08-15T13:14:11.594Z,1001.4
2017-08-15T13:15:21.652Z,1001.4
2017-08-15T13:16:31.776Z,1001.35
2017-08-15T13:17:43.639Z,1001.38
2017-08-15T13:18:57.681Z,1001.36
2017-08-15T13:20:08.151Z,1001.38
2017-08-15T13:21:18.573Z,1001.4
2017-08-15T13:22:30.585Z,1001.41
2017-08-15T13:23:40.944Z,1001.39
2017-08-15T13:24:51.016Z,1001.4
2017-08-15T13:26:01.136Z,1001.42
2017-08-15T13:27:11.501Z,1001.34
2017-08-15T13:28:21.560Z,1001.3
2017-08-15T13:29:31.621Z,1001.27
2017-08-15T13:30:41.059Z,1001.25
2017-08-15T13:31:51.469Z,1001.27
2017-08-15T13:33:05.993Z,1001.24
2017-08-15T13:34:16.361Z,1001.19
2017-08-15T13:35:26.739Z,1001.22
2017-08-15T13:36:36.829Z,1001.17
2017-08-15T13:37:49.546Z,1001.19
2017-08-15T13:38:59.925Z,1001.17
2017-08-15T13:40:10.047Z,1001.14
2017-08-15T13:41:20.467Z,1001.14
2017-08-15T13:42:30.507Z,1001.14
2017-08-15T13:43:40.973Z,1001.15
2017-08-15T13:44:51.361Z,1001.15
2017-08-15T13:46:01.770Z,1001.15
2017-08-15T13:47:14.310Z,1001.18
2017-08-15T13:48:24.406Z,1001.16
2017-08-15T13:49:34.849Z,1001.15
2017-08-15T13:50:45.781Z,1001.15
2017-08-15T13:51:56.173Z,1001.1
2017-08-15T13:53:06.249Z,1001.1
2017-08-15T13:54:16.364Z,1001.12
2017-08-15T13:55:26.887Z,1001.12
2017-08-15T13:56:37.267Z,1001.1
2017-08-15T13:57:47.669Z,1001.06
2017-08-15T13:58:57.760Z,1001.06
2017-08-15T14:00:08.148Z,1001.05
2017-08-15T14:01:18.594Z,1001.06
2017-08-15T14:02:28.353Z,1001.03
2017-08-15T14:03:38.713Z,1001
2017-08-15T14:04:49.081Z,1000.99
2017-08-15T14:05:59.480Z,1001.01
2017-08-15T14:07:12.192Z,1001.08
2017-08-15T14:08:22.543Z,1001.03
2017-08-15T14:09:32.705Z,1000.99
2017-08-15T14:10:43.074Z,1001.06
2017-08-15T14:11:53.174Z,1001.09
2017-08-15T14:13:03.582Z,1001.06
2017-08-15T14:14:13.692Z,1001.08
2017-08-15T14:15:23.778Z,1001.07
2017-08-15T14:16:34.169Z,1001.02
2017-08-15T14:17:44.540Z,1001.06
2017-08-15T14:18:55.025Z,1001.02
2017-08-15T14:20:05.413Z,1001.01
2017-08-15T14:21:15.131Z,1001.02
2017-08-15T14:22:25.490Z,1000.94
2017-08-15T14:23:35.869Z,1000.99
2017-08-15T14:24:45.966Z,1000.98
2017-08-15T14:25:56.336Z,1000.96
2017-08-15T14:27:06.453Z,1000.93
2017-08-15T14:28:16.874Z,1000.93
2017-08-15T14:29:27.295Z,1000.93
2017-08-15T14:30:37.519Z,1000.9
2017-08-15T14:31:47.942Z,1000.91
2017-08-15T14:32:58.359Z,1000.91
2017-08-15T14:34:08.761Z,1000.9
2017-08-15T14:35:19.151Z,1000.89
2017-08-15T14:36:29.642Z,1000.9
2017-08-15T14:37:40.022Z,1000.85
2017-08-15T14:38:50.420Z,1000.89
2017-08-15T14:40:00.456Z,1000.93
2017-08-15T14:41:10.905Z,1000.91
2017-08-15T14:42:21.025Z,1000.85
2017-08-15T14:43:31.389Z,1000.92
2017-08-15T14:44:42.984Z,1000.89
2017-08-15T14:45:53.358Z,1000.9